sensor_id;sensor_type;location;lat;lon;timestamp;pressure;altitude;pressure_sealevel;temperature;humidity
8298;BME280;4187;42.778;23.242;2023-04-29T00:02:28;95370.19;;;6.00;97.10
8298;BME280;4187;42.778;23.242;2023-04-29T00:04:55;95374.34;;;6.03;94.68
8298;BME280;4187;42.778;23.242;2023-04-29T00:07:22;95363.25;;;5.88;92.41
8298;BME280;4187;42.778;23.242;2023-04-29T00:09:50;95368.59;;;5.87;92.13
8298;BME280;4187;42.778;23.242;2023-04-29T00:12:18;95371.09;;;5.88;92.15
8298;BME280;4187;42.778;23.242;2023-04-29T00:14:46;95379.69;;;5.90;91.91
8298;BME280;4187;42.778;23.242;2023-04-29T00:17:13;95293.00;;;5.48;91.22
8298;BME280;4187;42.778;23.242;2023-04-29T00:19:42;95373.00;;;5.86;90.39
8298;BME280;4187;42.778;23.242;2023-04-29T00:22:10;95372.94;;;5.75;89.89
8298;BME280;4187;42.778;23.242;2023-04-29T00:24:38;95369.88;;;5.58;91.65
8298;BME280;4187;42.778;23.242;2023-04-29T00:27:05;95367.69;;;5.52;93.44
8298;BME280;4187;42.778;23.242;2023-04-29T00:29:33;95371.50;;;5.48;93.59
8298;BME280;4187;42.778;23.242;2023-04-29T00:32:01;95370.38;;;5.39;94.90
8298;BME280;4187;42.778;23.242;2023-04-29T00:34:29;95367.63;;;5.29;95.02
8298;BME280;4187;42.778;23.242;2023-04-29T00:36:58;95374.72;;;5.27;96.35
8298;BME280;4187;42.778;23.242;2023-04-29T00:39:25;95373.66;;;5.30;95.03
8298;BME280;4187;42.778;23.242;2023-04-29T00:41:53;95337.59;;;4.99;95.99
8298;BME280;4187;42.778;23.242;2023-04-29T00:44:20;95362.94;;;4.86;98.00
8298;BME280;4187;42.778;23.242;2023-04-29T00:46:48;95368.94;;;4.75;100.00
8298;BME280;4187;42.778;23.242;2023-04-29T00:49:16;95370.94;;;4.46;100.00
8298;BME280;4187;42.778;23.242;2023-04-29T00:51:44;95361.88;;;4.14;100.00
8298;BME280;4187;42.778;23.242;2023-04-29T00:54:13;95359.13;;;3.78;100.00
8298;BME280;4187;42.778;23.242;2023-04-29T00:56:42;95355.00;;;3.48;100.00
8298;BME280;4187;42.778;23.242;2023-04-29T00:59:11;95349.53;;;3.39;100.00
8298;BME280;4187;42.778;23.242;2023-04-29T01:01:40;95343.78;;;3.34;100.00
8298;BME280;4187;42.778;23.242;2023-04-29T01:04:09;95337.41;;;3.25;100.00
8298;BME280;4187;42.778;23.242;2023-04-29T01:06:47;95330.28;;;3.27;100.00
8298;BME280;4187;42.778;23.242;2023-04-29T01:09:28;95340.28;;;3.47;100.00
8298;BME280;4187;42.778;23.242;2023-04-29T01:12:06;95347.19;;;3.48;100.00
8298;BME280;4187;42.778;23.242;2023-04-29T01:14:34;95341.53;;;3.54;100.00
8298;BME280;4187;42.778;23.242;2023-04-29T01:17:05;95344.91;;;3.56;100.00
8298;BME280;4187;42.778;23.242;2023-04-29T01:19:45;95342.63;;;3.65;100.00
8298;BME280;4187;42.778;23.242;2023-04-29T01:22:15;95345.84;;;3.68;100.00
8298;BME280;4187;42.778;23.242;2023-04-29T01:24:46;95348.25;;;3.58;100.00
8298;BME280;4187;42.778;23.242;2023-04-29T01:27:22;95348.56;;;3.67;100.00
8298;BME280;4187;42.778;23.242;2023-04-29T01:29:58;95347.84;;;3.65;100.00
8298;BME280;4187;42.778;23.242;2023-04-29T01:32:32;95345.44;;;3.61;100.00
8298;BME280;4187;42.778;23.242;2023-04-29T01:35:07;95337.28;;;3.66;100.00
8298;BME280;4187;42.778;23.242;2023-04-29T01:37:40;95338.78;;;3.70;100.00
8298;BME280;4187;42.778;23.242;2023-04-29T01:40:19;95328.00;;;3.75;100.00
8298;BME280;4187;42.778;23.242;2023-04-29T01:42:59;95331.47;;;3.88;100.00
8298;BME280;4187;42.778;23.242;2023-04-29T01:45:29;95309.63;;;3.76;100.00
8298;BME280;4187;42.778;23.242;2023-04-29T01:47:57;95335.13;;;3.98;100.00
8298;BME280;4187;42.778;23.242;2023-04-29T01:50:25;95304.59;;;3.60;100.00
8298;BME280;4187;42.778;23.242;2023-04-29T01:52:52;95338.25;;;3.78;100.00
8298;BME280;4187;42.778;23.242;2023-04-29T01:55:21;95340.63;;;3.68;100.00
8298;BME280;4187;42.778;23.242;2023-04-29T01:57:48;95309.09;;;3.46;100.00
8298;BME280;4187;42.778;23.242;2023-04-29T02:00:16;95346.28;;;3.75;100.00
8298;BME280;4187;42.778;23.242;2023-04-29T02:02:43;95353.38;;;3.73;100.00
8298;BME280;4187;42.778;23.242;2023-04-29T02:05:11;95343.22;;;3.68;100.00
8298;BME280;4187;42.778;23.242;2023-04-29T02:07:38;95354.50;;;3.69;100.00
8298;BME280;4187;42.778;23.242;2023-04-29T02:10:07;95351.06;;;3.68;100.00
8298;BME280;4187;42.778;23.242;2023-04-29T02:12:36;95338.66;;;3.72;100.00
8298;BME280;4187;42.778;23.242;2023-04-29T02:15:05;95349.41;;;3.80;100.00
8298;BME280;4187;42.778;23.242;2023-04-29T02:17:33;95351.31;;;3.78;100.00
8298;BME280;4187;42.778;23.242;2023-04-29T02:20:02;95333.31;;;3.73;100.00
8298;BME280;4187;42.778;23.242;2023-04-29T02:22:30;95338.97;;;3.80;100.00
8298;BME280;4187;42.778;23.242;2023-04-29T02:24:59;95337.63;;;3.87;100.00
8298;BME280;4187;42.778;23.242;2023-04-29T02:27:27;95335.66;;;3.90;100.00
8298;BME280;4187;42.778;23.242;2023-04-29T02:29:58;95344.63;;;3.86;100.00
8298;BME280;4187;42.778;23.242;2023-04-29T02:32:26;95341.38;;;3.83;100.00
8298;BME280;4187;42.778;23.242;2023-04-29T02:34:55;95340.34;;;3.73;100.00
8298;BME280;4187;42.778;23.242;2023-04-29T02:37:24;95342.19;;;3.58;100.00
8298;BME280;4187;42.778;23.242;2023-04-29T02:39:51;95326.69;;;3.30;100.00
8298;BME280;4187;42.778;23.242;2023-04-29T02:42:19;95328.50;;;3.15;100.00
8298;BME280;4187;42.778;23.242;2023-04-29T02:44:46;95334.50;;;3.03;100.00
8298;BME280;4187;42.778;23.242;2023-04-29T02:47:15;95323.78;;;2.81;100.00
8298;BME280;4187;42.778;23.242;2023-04-29T02:49:43;95329.81;;;2.81;100.00
8298;BME280;4187;42.778;23.242;2023-04-29T02:52:11;95342.94;;;2.80;100.00
8298;BME280;4187;42.778;23.242;2023-04-29T02:54:39;95348.84;;;2.55;100.00
8298;BME280;4187;42.778;23.242;2023-04-29T02:57:07;95350.81;;;2.52;100.00
8298;BME280;4187;42.778;23.242;2023-04-29T02:59:36;95328.88;;;2.27;100.00
8298;BME280;4187;42.778;23.242;2023-04-29T03:02:04;95348.91;;;2.27;100.00
8298;BME280;4187;42.778;23.242;2023-04-29T03:04:34;95348.50;;;2.33;100.00
8298;BME280;4187;42.778;23.242;2023-04-29T03:07:05;95329.16;;;2.23;100.00
8298;BME280;4187;42.778;23.242;2023-04-29T03:09:33;95347.94;;;2.42;100.00
8298;BME280;4187;42.778;23.242;2023-04-29T03:12:01;95354.00;;;2.42;100.00
8298;BME280;4187;42.778;23.242;2023-04-29T03:14:29;95357.16;;;2.33;100.00
8298;BME280;4187;42.778;23.242;2023-04-29T03:16:57;95347.47;;;2.35;100.00
8298;BME280;4187;42.778;23.242;2023-04-29T03:19:25;95369.50;;;2.44;100.00
8298;BME280;4187;42.778;23.242;2023-04-29T03:21:54;95363.03;;;2.37;100.00
8298;BME280;4187;42.778;23.242;2023-04-29T03:24:22;95376.69;;;2.40;100.00
8298;BME280;4187;42.778;23.242;2023-04-29T03:26:50;95385.91;;;2.32;100.00
8298;BME280;4187;42.778;23.242;2023-04-29T03:29:19;95381.78;;;2.28;100.00
8298;BME280;4187;42.778;23.242;2023-04-29T03:31:47;95381.13;;;2.24;100.00
8298;BME280;4187;42.778;23.242;2023-04-29T03:34:16;95384.75;;;2.22;100.00
8298;BME280;4187;42.778;23.242;2023-04-29T03:36:43;95374.63;;;2.17;100.00
8298;BME280;4187;42.778;23.242;2023-04-29T03:39:15;95378.81;;;2.34;100.00
8298;BME280;4187;42.778;23.242;2023-04-29T03:41:42;95378.06;;;2.46;100.00
8298;BME280;4187;42.778;23.242;2023-04-29T03:44:10;95375.09;;;2.52;100.00
8298;BME280;4187;42.778;23.242;2023-04-29T03:46:37;95346.44;;;2.38;100.00
8298;BME280;4187;42.778;23.242;2023-04-29T03:49:05;95369.81;;;2.54;100.00
8298;BME280;4187;42.778;23.242;2023-04-29T03:51:32;95374.44;;;2.63;100.00
8298;BME280;4187;42.778;23.242;2023-04-29T03:53:59;95376.47;;;2.72;100.00
8298;BME280;4187;42.778;23.242;2023-04-29T03:56:30;95372.00;;;2.74;100.00
8298;BME280;4187;42.778;23.242;2023-04-29T03:58:58;95371.50;;;2.81;100.00
8298;BME280;4187;42.778;23.242;2023-04-29T04:01:26;95379.31;;;2.95;100.00
8298;BME280;4187;42.778;23.242;2023-04-29T04:03:53;95369.41;;;3.00;100.00
8298;BME280;4187;42.778;23.242;2023-04-29T04:06:22;95398.16;;;3.13;100.00
8298;BME280;4187;42.778;23.242;2023-04-29T04:08:49;95395.09;;;3.07;100.00
8298;BME280;4187;42.778;23.242;2023-04-29T04:11:18;95394.41;;;3.17;100.00
8298;BME280;4187;42.778;23.242;2023-04-29T04:13:47;95391.88;;;3.30;100.00
8298;BME280;4187;42.778;23.242;2023-04-29T04:16:16;95392.69;;;3.30;100.00
8298;BME280;4187;42.778;23.242;2023-04-29T04:18:45;95394.97;;;3.22;100.00
8298;BME280;4187;42.778;23.242;2023-04-29T04:21:13;95386.41;;;3.20;100.00
8298;BME280;4187;42.778;23.242;2023-04-29T04:23:41;95389.34;;;3.28;100.00
8298;BME280;4187;42.778;23.242;2023-04-29T04:26:08;95388.84;;;3.36;100.00
8298;BME280;4187;42.778;23.242;2023-04-29T04:28:36;95389.19;;;3.44;100.00
8298;BME280;4187;42.778;23.242;2023-04-29T04:31:05;95383.00;;;3.59;100.00
8298;BME280;4187;42.778;23.242;2023-04-29T04:33:33;95392.63;;;3.71;100.00
8298;BME280;4187;42.778;23.242;2023-04-29T04:36:01;95395.16;;;3.85;100.00
8298;BME280;4187;42.778;23.242;2023-04-29T04:38:28;95405.50;;;4.88;100.00
8298;BME280;4187;42.778;23.242;2023-04-29T04:40:57;95396.56;;;5.63;100.00
8298;BME280;4187;42.778;23.242;2023-04-29T04:43:25;95394.91;;;5.62;100.00
8298;BME280;4187;42.778;23.242;2023-04-29T04:45:52;95388.66;;;5.52;100.00
8298;BME280;4187;42.778;23.242;2023-04-29T04:48:21;95385.03;;;5.41;100.00
8298;BME280;4187;42.778;23.242;2023-04-29T04:50:48;95381.28;;;5.33;100.00
8298;BME280;4187;42.778;23.242;2023-04-29T04:53:15;95383.31;;;5.29;100.00
8298;BME280;4187;42.778;23.242;2023-04-29T04:55:43;95386.47;;;5.22;100.00
8298;BME280;4187;42.778;23.242;2023-04-29T04:58:11;95391.47;;;5.25;100.00
8298;BME280;4187;42.778;23.242;2023-04-29T05:00:43;95379.72;;;5.30;100.00
8298;BME280;4187;42.778;23.242;2023-04-29T05:03:10;95379.09;;;5.39;100.00
8298;BME280;4187;42.778;23.242;2023-04-29T05:05:39;95357.09;;;5.42;100.00
8298;BME280;4187;42.778;23.242;2023-04-29T05:08:07;95362.09;;;5.45;100.00
8298;BME280;4187;42.778;23.242;2023-04-29T05:10:35;95364.59;;;5.47;100.00
8298;BME280;4187;42.778;23.242;2023-04-29T05:13:02;95363.81;;;5.57;100.00
8298;BME280;4187;42.778;23.242;2023-04-29T05:15:30;95372.69;;;5.67;100.00
8298;BME280;4187;42.778;23.242;2023-04-29T05:17:57;95365.31;;;5.72;100.00
8298;BME280;4187;42.778;23.242;2023-04-29T05:20:25;95368.06;;;5.82;100.00
8298;BME280;4187;42.778;23.242;2023-04-29T05:22:54;95318.25;;;5.60;100.00
8298;BME280;4187;42.778;23.242;2023-04-29T05:25:22;95363.28;;;5.99;100.00
8298;BME280;4187;42.778;23.242;2023-04-29T05:27:50;95362.56;;;6.09;100.00
8298;BME280;4187;42.778;23.242;2023-04-29T05:30:18;95363.56;;;6.19;100.00
8298;BME280;4187;42.778;23.242;2023-04-29T05:32:46;95356.91;;;6.26;100.00
8298;BME280;4187;42.778;23.242;2023-04-29T05:35:13;95374.91;;;6.41;100.00
8298;BME280;4187;42.778;23.242;2023-04-29T05:37:40;95372.28;;;6.41;100.00
8298;BME280;4187;42.778;23.242;2023-04-29T05:40:10;95379.22;;;6.53;100.00
8298;BME280;4187;42.778;23.242;2023-04-29T05:42:38;95380.16;;;6.63;100.00
8298;BME280;4187;42.778;23.242;2023-04-29T05:45:08;95378.97;;;6.79;100.00
8298;BME280;4187;42.778;23.242;2023-04-29T05:47:37;95368.47;;;6.90;100.00
8298;BME280;4187;42.778;23.242;2023-04-29T05:50:06;95370.00;;;7.03;100.00
8298;BME280;4187;42.778;23.242;2023-04-29T05:52:34;95380.25;;;7.17;100.00
8298;BME280;4187;42.778;23.242;2023-04-29T05:55:02;95380.69;;;7.34;100.00
8298;BME280;4187;42.778;23.242;2023-04-29T05:57:32;95373.59;;;7.56;100.00
8298;BME280;4187;42.778;23.242;2023-04-29T06:00:00;95373.63;;;7.77;100.00
8298;BME280;4187;42.778;23.242;2023-04-29T06:02:28;95375.34;;;7.99;100.00
8298;BME280;4187;42.778;23.242;2023-04-29T06:04:56;95365.41;;;8.23;100.00
8298;BME280;4187;42.778;23.242;2023-04-29T06:07:25;95370.81;;;8.42;100.00
8298;BME280;4187;42.778;23.242;2023-04-29T06:09:55;95375.78;;;8.66;100.00
8298;BME280;4187;42.778;23.242;2023-04-29T06:12:23;95363.72;;;8.84;100.00
8298;BME280;4187;42.778;23.242;2023-04-29T06:14:52;95372.66;;;9.12;100.00
8298;BME280;4187;42.778;23.242;2023-04-29T06:17:19;95369.50;;;9.27;100.00
8298;BME280;4187;42.778;23.242;2023-04-29T06:19:46;95374.13;;;9.44;100.00
8298;BME280;4187;42.778;23.242;2023-04-29T06:22:13;95368.63;;;9.67;100.00
8298;BME280;4187;42.778;23.242;2023-04-29T06:24:40;95379.47;;;9.83;100.00
8298;BME280;4187;42.778;23.242;2023-04-29T06:27:08;95351.44;;;10.01;100.00
8298;BME280;4187;42.778;23.242;2023-04-29T06:29:36;95367.25;;;10.39;99.28
8298;BME280;4187;42.778;23.242;2023-04-29T06:32:05;95365.94;;;10.62;99.77
8298;BME280;4187;42.778;23.242;2023-04-29T06:34:34;95355.19;;;10.83;95.56
8298;BME280;4187;42.778;23.242;2023-04-29T06:37:02;95362.59;;;11.07;94.73
8298;BME280;4187;42.778;23.242;2023-04-29T06:39:30;95360.16;;;11.23;92.15
8298;BME280;4187;42.778;23.242;2023-04-29T06:41:57;95356.06;;;11.38;91.71
8298;BME280;4187;42.778;23.242;2023-04-29T06:44:24;95360.81;;;11.52;92.07
8298;BME280;4187;42.778;23.242;2023-04-29T06:46:52;95363.56;;;11.60;93.17
8298;BME280;4187;42.778;23.242;2023-04-29T06:49:21;95364.75;;;11.75;91.67
8298;BME280;4187;42.778;23.242;2023-04-29T06:52:08;95366.19;;;11.87;90.90
8298;BME280;4187;42.778;23.242;2023-04-29T06:54:36;95356.16;;;11.91;91.88
8298;BME280;4187;42.778;23.242;2023-04-29T06:57:03;95354.47;;;11.90;91.35
8298;BME280;4187;42.778;23.242;2023-04-29T06:59:33;95352.06;;;11.96;90.71
8298;BME280;4187;42.778;23.242;2023-04-29T07:02:01;95350.56;;;11.94;90.85
8298;BME280;4187;42.778;23.242;2023-04-29T07:04:31;95355.41;;;11.81;91.21
8298;BME280;4187;42.778;23.242;2023-04-29T07:06:59;95354.09;;;11.85;91.60
8298;BME280;4187;42.778;23.242;2023-04-29T07:09:26;95361.81;;;11.96;92.86
8298;BME280;4187;42.778;23.242;2023-04-29T07:11:54;95358.84;;;12.17;91.40
8298;BME280;4187;42.778;23.242;2023-04-29T07:14:21;95357.47;;;12.30;88.47
8298;BME280;4187;42.778;23.242;2023-04-29T07:16:52;95353.25;;;12.37;89.27
8298;BME280;4187;42.778;23.242;2023-04-29T07:19:20;95353.44;;;12.44;87.67
8298;BME280;4187;42.778;23.242;2023-04-29T07:21:49;95350.97;;;12.42;87.36
8298;BME280;4187;42.778;23.242;2023-04-29T07:24:17;95351.03;;;12.33;88.84
8298;BME280;4187;42.778;23.242;2023-04-29T07:26:44;95348.94;;;12.36;88.58
8298;BME280;4187;42.778;23.242;2023-04-29T07:29:11;95353.88;;;12.57;90.04
8298;BME280;4187;42.778;23.242;2023-04-29T07:31:43;95329.22;;;12.82;91.18
8298;BME280;4187;42.778;23.242;2023-04-29T07:34:10;95345.69;;;13.28;89.36
8298;BME280;4187;42.778;23.242;2023-04-29T07:36:38;95343.84;;;13.62;87.43
8298;BME280;4187;42.778;23.242;2023-04-29T07:39:07;95341.06;;;13.88;86.19
8298;BME280;4187;42.778;23.242;2023-04-29T07:41:36;95339.59;;;14.09;82.64
8298;BME280;4187;42.778;23.242;2023-04-29T07:44:05;95337.50;;;14.37;82.38
8298;BME280;4187;42.778;23.242;2023-04-29T07:46:32;95340.28;;;14.68;81.98
8298;BME280;4187;42.778;23.242;2023-04-29T07:49:00;95331.44;;;14.91;83.09
8298;BME280;4187;42.778;23.242;2023-04-29T07:51:27;95322.25;;;15.10;84.90
8298;BME280;4187;42.778;23.242;2023-04-29T07:53:55;95319.47;;;15.42;82.48
8298;BME280;4187;42.778;23.242;2023-04-29T07:56:24;95325.69;;;15.66;81.57
8298;BME280;4187;42.778;23.242;2023-04-29T07:58:51;95324.88;;;15.88;80.48
8298;BME280;4187;42.778;23.242;2023-04-29T08:01:19;95314.63;;;16.07;79.74
8298;BME280;4187;42.778;23.242;2023-04-29T08:03:47;95317.38;;;16.37;78.64
8298;BME280;4187;42.778;23.242;2023-04-29T08:06:15;95301.41;;;16.59;78.86
8298;BME280;4187;42.778;23.242;2023-04-29T08:08:42;95315.31;;;16.99;76.17
8298;BME280;4187;42.778;23.242;2023-04-29T08:11:15;95309.72;;;17.23;78.67
8298;BME280;4187;42.778;23.242;2023-04-29T08:13:44;95274.56;;;17.34;73.44
8298;BME280;4187;42.778;23.242;2023-04-29T08:16:12;95309.00;;;17.79;74.48
8298;BME280;4187;42.778;23.242;2023-04-29T08:18:39;95304.72;;;18.00;74.04
8298;BME280;4187;42.778;23.242;2023-04-29T08:21:07;95300.34;;;18.13;72.01
8298;BME280;4187;42.778;23.242;2023-04-29T08:23:36;95256.16;;;17.89;70.56
8298;BME280;4187;42.778;23.242;2023-04-29T08:26:04;95277.53;;;17.89;65.95
8298;BME280;4187;42.778;23.242;2023-04-29T08:28:31;95303.53;;;18.23;67.88
8298;BME280;4187;42.778;23.242;2023-04-29T08:31:00;95308.13;;;18.50;69.21
8298;BME280;4187;42.778;23.242;2023-04-29T08:33:28;95304.59;;;18.71;66.09
8298;BME280;4187;42.778;23.242;2023-04-29T08:35:58;95297.63;;;18.77;64.74
8298;BME280;4187;42.778;23.242;2023-04-29T08:38:28;95297.88;;;18.54;66.14
8298;BME280;4187;42.778;23.242;2023-04-29T08:40:55;95294.47;;;18.67;69.64
8298;BME280;4187;42.778;23.242;2023-04-29T08:43:22;95299.16;;;18.86;66.95
8298;BME280;4187;42.778;23.242;2023-04-29T08:45:51;95302.63;;;19.14;68.95
8298;BME280;4187;42.778;23.242;2023-04-29T08:48:20;95300.84;;;19.28;66.35
8298;BME280;4187;42.778;23.242;2023-04-29T08:50:48;95306.41;;;19.26;66.84
8298;BME280;4187;42.778;23.242;2023-04-29T08:53:16;95298.97;;;19.22;63.23
8298;BME280;4187;42.778;23.242;2023-04-29T08:55:44;95292.81;;;19.28;65.20
8298;BME280;4187;42.778;23.242;2023-04-29T08:58:12;95297.16;;;19.29;63.44
8298;BME280;4187;42.778;23.242;2023-04-29T09:00:41;95289.69;;;19.18;63.73
8298;BME280;4187;42.778;23.242;2023-04-29T09:03:14;95294.69;;;19.27;65.14
8298;BME280;4187;42.778;23.242;2023-04-29T09:05:45;95289.13;;;19.29;64.57
8298;BME280;4187;42.778;23.242;2023-04-29T09:08:14;95286.00;;;19.19;62.68
8298;BME280;4187;42.778;23.242;2023-04-29T09:10:42;95284.63;;;19.29;65.58
8298;BME280;4187;42.778;23.242;2023-04-29T09:13:22;95286.50;;;19.35;63.28
8298;BME280;4187;42.778;23.242;2023-04-29T09:15:50;95284.84;;;19.34;63.10
8298;BME280;4187;42.778;23.242;2023-04-29T09:18:44;95281.25;;;19.21;64.05
8298;BME280;4187;42.778;23.242;2023-04-29T09:21:17;95282.31;;;19.26;63.13
8298;BME280;4187;42.778;23.242;2023-04-29T09:23:47;95274.75;;;19.36;63.85
8298;BME280;4187;42.778;23.242;2023-04-29T09:26:15;95278.56;;;19.48;63.65
8298;BME280;4187;42.778;23.242;2023-04-29T09:28:42;95274.25;;;19.54;66.43
8298;BME280;4187;42.778;23.242;2023-04-29T09:31:10;95254.69;;;19.53;67.22
8298;BME280;4187;42.778;23.242;2023-04-29T09:33:51;95268.53;;;19.63;65.56
8298;BME280;4187;42.778;23.242;2023-04-29T09:36:41;95266.03;;;19.55;63.71
8298;BME280;4187;42.778;23.242;2023-04-29T09:39:11;95258.69;;;19.30;62.00
8298;BME280;4187;42.778;23.242;2023-04-29T09:41:41;95248.16;;;19.28;64.37
8298;BME280;4187;42.778;23.242;2023-04-29T09:44:15;95246.34;;;19.35;63.83
8298;BME280;4187;42.778;23.242;2023-04-29T09:46:43;95252.81;;;19.47;64.71
8298;BME280;4187;42.778;23.242;2023-04-29T09:49:22;95241.41;;;19.32;63.72
8298;BME280;4187;42.778;23.242;2023-04-29T09:51:56;95238.06;;;19.30;63.82
8298;BME280;4187;42.778;23.242;2023-04-29T09:54:26;95235.28;;;19.38;60.98
8298;BME280;4187;42.778;23.242;2023-04-29T09:56:55;95237.00;;;19.59;62.26
8298;BME280;4187;42.778;23.242;2023-04-29T09:59:23;95238.44;;;19.61;62.11
8298;BME280;4187;42.778;23.242;2023-04-29T10:01:53;95231.56;;;19.39;61.40
8298;BME280;4187;42.778;23.242;2023-04-29T10:04:22;95223.19;;;19.49;62.66
8298;BME280;4187;42.778;23.242;2023-04-29T10:06:54;95187.66;;;19.34;67.97
8298;BME280;4187;42.778;23.242;2023-04-29T10:09:24;95219.50;;;19.63;62.30
8298;BME280;4187;42.778;23.242;2023-04-29T10:11:52;95220.97;;;19.72;63.26
8298;BME280;4187;42.778;23.242;2023-04-29T10:14:21;95216.41;;;19.66;60.63
8298;BME280;4187;42.778;23.242;2023-04-29T10:16:57;95227.97;;;19.66;62.50
8298;BME280;4187;42.778;23.242;2023-04-29T10:19:29;95223.25;;;19.75;63.39
8298;BME280;4187;42.778;23.242;2023-04-29T10:21:59;95219.16;;;19.86;60.36
8298;BME280;4187;42.778;23.242;2023-04-29T10:24:35;95219.56;;;19.96;55.71
8298;BME280;4187;42.778;23.242;2023-04-29T10:27:06;95217.09;;;19.88;55.76
8298;BME280;4187;42.778;23.242;2023-04-29T10:29:37;95213.38;;;19.82;59.26
8298;BME280;4187;42.778;23.242;2023-04-29T10:32:07;95208.41;;;19.73;56.40
8298;BME280;4187;42.778;23.242;2023-04-29T10:34:38;95206.28;;;19.55;57.26
8298;BME280;4187;42.778;23.242;2023-04-29T10:37:08;95203.41;;;19.50;58.22
8298;BME280;4187;42.778;23.242;2023-04-29T10:39:41;95198.72;;;19.65;59.95
8298;BME280;4187;42.778;23.242;2023-04-29T10:42:17;95201.25;;;19.86;56.72
8298;BME280;4187;42.778;23.242;2023-04-29T10:45:19;95204.34;;;19.96;45.67
8298;BME280;4187;42.778;23.242;2023-04-29T10:48:12;95146.19;;;19.51;43.81
8298;BME280;4187;42.778;23.242;2023-04-29T10:51:01;95196.69;;;19.80;44.36
8298;BME280;4187;42.778;23.242;2023-04-29T10:53:31;95192.78;;;19.96;47.79
8298;BME280;4187;42.778;23.242;2023-04-29T10:56:07;95197.13;;;20.03;46.73
8298;BME280;4187;42.778;23.242;2023-04-29T10:58:41;95189.25;;;19.69;41.34
8298;BME280;4187;42.778;23.242;2023-04-29T11:01:11;95184.47;;;19.51;44.63
8298;BME280;4187;42.778;23.242;2023-04-29T11:03:47;95193.31;;;19.52;45.76
8298;BME280;4187;42.778;23.242;2023-04-29T11:06:20;95177.44;;;19.44;45.06
8298;BME280;4187;42.778;23.242;2023-04-29T11:08:59;95173.91;;;19.37;44.45
8298;BME280;4187;42.778;23.242;2023-04-29T11:11:44;95174.13;;;19.42;44.35
8298;BME280;4187;42.778;23.242;2023-04-29T11:14:12;95161.63;;;19.49;74.95
8298;BME280;4187;42.778;23.242;2023-04-29T11:16:46;95168.66;;;19.69;65.09
8298;BME280;4187;42.778;23.242;2023-04-29T11:19:15;95175.28;;;19.87;64.88
8298;BME280;4187;42.778;23.242;2023-04-29T11:21:45;95172.59;;;19.93;56.79
8298;BME280;4187;42.778;23.242;2023-04-29T11:24:13;95165.81;;;19.84;47.84
8298;BME280;4187;42.778;23.242;2023-04-29T11:26:46;95171.75;;;19.80;58.25
8298;BME280;4187;42.778;23.242;2023-04-29T11:29:14;95175.25;;;19.80;59.25
8298;BME280;4187;42.778;23.242;2023-04-29T11:32:12;95167.44;;;19.72;44.96
8298;BME280;4187;42.778;23.242;2023-04-29T11:34:40;95175.44;;;19.65;41.68
8298;BME280;4187;42.778;23.242;2023-04-29T11:37:08;95169.88;;;19.54;44.63
8298;BME280;4187;42.778;23.242;2023-04-29T11:39:36;95173.34;;;19.48;43.70
8298;BME280;4187;42.778;23.242;2023-04-29T11:42:05;95168.94;;;19.34;42.46
8298;BME280;4187;42.778;23.242;2023-04-29T11:44:33;95159.28;;;18.85;42.98
8298;BME280;4187;42.778;23.242;2023-04-29T11:47:03;95168.28;;;18.78;42.93
8298;BME280;4187;42.778;23.242;2023-04-29T11:49:31;95160.16;;;18.58;42.74
8298;BME280;4187;42.778;23.242;2023-04-29T11:51:59;95159.78;;;18.61;44.29
8298;BME280;4187;42.778;23.242;2023-04-29T11:54:28;95148.84;;;18.56;45.02
8298;BME280;4187;42.778;23.242;2023-04-29T11:56:57;95159.25;;;18.79;43.35
8298;BME280;4187;42.778;23.242;2023-04-29T11:59:26;95159.31;;;18.92;42.76
8298;BME280;4187;42.778;23.242;2023-04-29T12:01:53;95153.81;;;19.00;44.02
8298;BME280;4187;42.778;23.242;2023-04-29T12:04:21;95157.38;;;19.14;43.92
8298;BME280;4187;42.778;23.242;2023-04-29T12:06:51;95150.56;;;19.18;43.86
8298;BME280;4187;42.778;23.242;2023-04-29T12:09:18;95146.09;;;19.25;44.25
8298;BME280;4187;42.778;23.242;2023-04-29T12:15:10;95151.03;;;19.34;45.32
8298;BME280;4187;42.778;23.242;2023-04-29T12:17:38;95146.50;;;19.35;44.82
8298;BME280;4187;42.778;23.242;2023-04-29T12:20:08;95147.31;;;19.29;43.72
8298;BME280;4187;42.778;23.242;2023-04-29T12:22:36;95141.50;;;19.12;43.26
8298;BME280;4187;42.778;23.242;2023-04-29T12:25:05;95139.44;;;19.14;45.38
8298;BME280;4187;42.778;23.242;2023-04-29T12:27:34;95134.94;;;19.21;44.99
8298;BME280;4187;42.778;23.242;2023-04-29T12:30:02;95131.88;;;19.24;45.94
8298;BME280;4187;42.778;23.242;2023-04-29T12:32:34;95131.72;;;19.39;43.79
8298;BME280;4187;42.778;23.242;2023-04-29T12:35:01;95126.09;;;19.21;44.05
8298;BME280;4187;42.778;23.242;2023-04-29T12:37:29;95128.03;;;18.86;43.64
8298;BME280;4187;42.778;23.242;2023-04-29T12:39:56;95125.53;;;18.78;45.05
8298;BME280;4187;42.778;23.242;2023-04-29T12:42:31;95124.81;;;18.63;45.70
8298;BME280;4187;42.778;23.242;2023-04-29T12:44:58;95125.38;;;18.52;45.08
8298;BME280;4187;42.778;23.242;2023-04-29T12:47:30;95119.53;;;18.41;46.49
8298;BME280;4187;42.778;23.242;2023-04-29T12:50:00;95088.81;;;18.24;46.66
8298;BME280;4187;42.778;23.242;2023-04-29T12:52:28;95095.38;;;18.22;48.32
8298;BME280;4187;42.778;23.242;2023-04-29T12:54:56;95094.22;;;18.37;48.53
8298;BME280;4187;42.778;23.242;2023-04-29T12:57:27;95120.94;;;18.65;47.81
8298;BME280;4187;42.778;23.242;2023-04-29T12:59:55;95094.94;;;18.52;48.32
8298;BME280;4187;42.778;23.242;2023-04-29T13:02:22;95118.91;;;18.74;48.83
8298;BME280;4187;42.778;23.242;2023-04-29T13:04:49;95110.75;;;18.88;48.74
8298;BME280;4187;42.778;23.242;2023-04-29T13:07:19;95110.22;;;19.13;46.63
8298;BME280;4187;42.778;23.242;2023-04-29T13:09:48;95113.16;;;19.24;47.44
8298;BME280;4187;42.778;23.242;2023-04-29T13:12:16;95049.03;;;18.90;47.69
8298;BME280;4187;42.778;23.242;2023-04-29T13:14:43;95104.72;;;19.34;49.71
8298;BME280;4187;42.778;23.242;2023-04-29T13:17:11;95097.38;;;19.42;48.24
8298;BME280;4187;42.778;23.242;2023-04-29T13:19:38;95102.31;;;19.45;49.62
8298;BME280;4187;42.778;23.242;2023-04-29T13:22:07;95100.88;;;19.56;47.64
8298;BME280;4187;42.778;23.242;2023-04-29T13:24:36;95099.22;;;19.55;47.56
8298;BME280;4187;42.778;23.242;2023-04-29T13:27:03;95096.34;;;19.63;49.62
8298;BME280;4187;42.778;23.242;2023-04-29T13:29:31;95098.22;;;19.62;49.21